Time;durP1;ratioP1;P1;durP2;ratioP2;P2;SDS_P1;SDS_P2;PMS_P1;PMS_P2;Temp;Humidity;BMP_temperature;BMP_pressure;BME280_temperature;BME280_humidity;BME280_pressure;Samples;Min_cycle;Max_cycle;Signal;HPM_P1;HPM_P2
2023/03/22 00:02:09;;;;;;;7.20;4.60;;;;;;;9.35;89.85;100355.00;108640;1258;72272;-68
2023/03/22 00:04:36;;;;;;;7.70;5.20;;;;;;;9.35;89.83;100351.27;108655;1258;73348;-68
2023/03/22 00:07:03;;;;;;;8.20;5.20;;;;;;;9.33;90.10;100347.77;108565;1258;61112;-68
2023/03/22 00:09:30;;;;;;;8.90;5.20;;;;;;;9.33;89.97;100346.55;108664;1258;59103;-68
2023/03/22 00:11:57;;;;;;;6.70;4.90;;;;;;;9.33;89.89;100346.39;108664;1258;73491;-68
2023/03/22 00:14:23;;;;;;;7.70;5.20;;;;;;;9.32;89.98;100349.73;108768;1258;68806;-68
2023/03/22 00:16:50;;;;;;;8.30;5.40;;;;;;;9.32;89.89;100349.05;108735;1258;72832;-68
2023/03/22 00:19:17;;;;;;;7.70;5.20;;;;;;;9.31;90.02;100351.95;108725;1258;59143;-68
2023/03/22 00:21:43;;;;;;;6.60;5.10;;;;;;;9.31;89.87;100348.46;108826;1258;60121;-68
2023/03/22 00:24:11;;;;;;;7.80;5.00;;;;;;;9.29;90.10;100349.70;108622;1258;75266;-68
2023/03/22 00:26:38;;;;;;;7.90;5.30;;;;;;;9.28;90.04;100345.76;108756;1258;69956;-68
2023/03/22 00:29:05;;;;;;;7.80;5.60;;;;;;;9.28;90.11;100347.90;108814;1258;72039;-68
2023/03/22 00:31:31;;;;;;;8.30;5.50;;;;;;;9.27;90.00;100342.32;108817;1258;60934;-68
2023/03/22 00:33:58;;;;;;;7.50;5.40;;;;;;;9.26;89.94;100345.23;108674;1260;59044;-68
2023/03/22 00:36:25;;;;;;;9.70;5.80;;;;;;;9.26;89.88;100339.52;108726;1261;74558;-68
2023/03/22 00:38:51;;;;;;;9.30;5.70;;;;;;;9.24;89.96;100334.52;108649;1258;70641;-68
2023/03/22 00:41:20;;;;;;;9.10;6.30;;;;;;;9.23;90.21;100335.76;108863;1258;58996;-68
2023/03/22 00:43:48;;;;;;;8.80;6.00;;;;;;;9.20;89.97;100330.91;108702;1262;59656;-68
2023/03/22 00:46:18;;;;;;;9.30;6.00;;;;;;;9.19;90.15;100325.48;108697;1260;60067;-68
2023/03/22 00:48:45;;;;;;;9.50;6.30;;;;;;;9.16;90.21;100327.14;108812;1258;74692;-68
2023/03/22 00:51:13;;;;;;;8.80;5.80;;;;;;;9.14;90.21;100322.98;108692;1260;70130;-68
2023/03/22 00:53:41;;;;;;;8.80;6.10;;;;;;;9.10;90.49;100319.00;108854;1258;71206;-68
2023/03/22 00:56:14;;;;;;;9.90;6.50;;;;;;;9.07;90.37;100312.14;108772;1260;59853;-68
2023/03/22 00:58:42;;;;;;;12.30;6.80;;;;;;;9.03;90.50;100311.23;108710;1259;59499;-68
2023/03/22 01:01:12;;;;;;;10.20;6.40;;;;;;;8.99;90.81;100305.51;108779;1258;73161;-68
2023/03/22 01:03:40;;;;;;;8.50;6.60;;;;;;;8.95;91.11;100309.30;108847;1258;71003;-68
2023/03/22 01:06:07;;;;;;;8.90;6.80;;;;;;;8.92;90.92;100306.07;108823;1258;70809;-68
2023/03/22 01:08:37;;;;;;;10.70;7.60;;;;;;;8.89;91.07;100304.80;108741;1260;59859;-68
2023/03/22 01:11:06;;;;;;;10.30;7.10;;;;;;;8.88;91.00;100301.44;108858;1258;60344;-68
2023/03/22 01:13:33;;;;;;;11.80;7.60;;;;;;;8.86;91.32;100299.89;108809;1258;73995;-68
2023/03/22 01:15:59;;;;;;;10.60;7.30;;;;;;;8.85;91.62;100301.08;108743;1258;69910;-68
2023/03/22 01:18:26;;;;;;;8.90;6.80;;;;;;;8.85;91.48;100301.09;108816;1260;72076;-68
2023/03/22 01:20:53;;;;;;;10.60;8.00;;;;;;;8.85;91.72;100293.16;108784;1260;59722;-68
2023/03/22 01:23:20;;;;;;;10.20;7.90;;;;;;;8.87;91.68;100286.02;108802;1259;60345;-68
2023/03/22 01:25:46;;;;;;;12.40;8.60;;;;;;;8.88;91.44;100291.39;108851;1258;73498;-68
2023/03/22 01:28:13;;;;;;;10.60;8.10;;;;;;;8.90;91.71;100279.83;108729;1258;71231;-68
2023/03/22 01:30:40;;;;;;;11.20;8.40;;;;;;;8.93;91.51;100278.45;108852;1258;72799;-68
2023/03/22 01:33:08;;;;;;;12.30;8.20;;;;;;;8.96;91.43;100280.80;108662;1260;60635;-68
2023/03/22 01:35:35;;;;;;;11.80;8.30;;;;;;;8.99;91.42;100279.15;108863;1260;60101;-68
2023/03/22 01:38:03;;;;;;;11.60;8.30;;;;;;;9.01;91.44;100277.41;108884;1258;74456;-68
2023/03/22 01:40:29;;;;;;;11.00;8.30;;;;;;;9.02;91.00;100278.99;108773;1258;69908;-68
2023/03/22 01:42:56;;;;;;;13.00;8.90;;;;;;;9.04;91.19;100276.70;108836;1258;71510;-68
2023/03/22 01:45:42;;;;;;;10.70;7.90;;;;;;;9.06;90.90;100273.13;108833;1258;59078;-68
2023/03/22 01:48:36;;;;;;;12.20;8.70;;;;;;;9.08;90.84;100274.64;108837;1260;58452;-68
2023/03/22 01:51:18;;;;;;;11.60;7.90;;;;;;;9.11;90.67;100273.09;108841;1258;74836;-68
2023/03/22 01:53:49;;;;;;;11.80;8.70;;;;;;;9.14;90.58;100272.54;108715;1258;69717;-68
2023/03/22 01:56:22;;;;;;;12.30;9.20;;;;;;;9.18;90.62;100271.39;108821;1261;72433;-68
2023/03/22 01:58:51;;;;;;;10.40;7.90;;;;;;;9.20;90.39;100270.64;108817;1259;62325;-68
2023/03/22 02:01:18;;;;;;;12.20;8.50;;;;;;;9.22;90.30;100265.46;108732;1258;61743;-68
2023/03/22 02:03:54;;;;;;;12.40;8.70;;;;;;;9.25;90.17;100263.23;108819;1258;74502;-68
2023/03/22 02:06:22;;;;;;;12.90;9.40;;;;;;;9.28;90.06;100259.80;108685;1258;69766;-68
2023/03/22 02:08:51;;;;;;;13.60;9.00;;;;;;;9.31;90.06;100256.99;108580;1258;71473;-68
2023/03/22 02:11:29;;;;;;;12.40;8.90;;;;;;;9.33;89.89;100256.58;108632;1258;60070;-69
2023/03/22 02:14:14;;;;;;;13.70;9.20;;;;;;;9.33;89.81;100255.48;108761;1258;59181;-68
2023/03/22 02:16:46;;;;;;;11.90;9.10;;;;;;;9.34;89.91;100254.32;108864;1258;74380;-68
2023/03/22 02:19:30;;;;;;;11.90;9.20;;;;;;;9.34;89.83;100251.11;108770;1260;69931;-68
2023/03/22 02:22:20;;;;;;;13.10;10.00;;;;;;;9.34;90.01;100249.59;108749;1258;71735;-68
2023/03/22 02:24:47;;;;;;;15.80;10.70;;;;;;;9.34;89.90;100251.12;108683;1260;59879;-68
2023/03/22 02:27:22;;;;;;;11.30;9.00;;;;;;;9.34;89.88;100248.58;108811;1259;59087;-68
2023/03/22 02:29:52;;;;;;;11.80;9.50;;;;;;;9.34;89.87;100244.99;108576;1260;74907;-68
2023/03/22 02:32:47;;;;;;;12.60;9.80;;;;;;;9.34;90.04;100250.48;108705;1258;70921;-68
2023/03/22 02:35:43;;;;;;;12.00;9.90;;;;;;;9.33;90.14;100246.98;108834;1258;73906;-68
2023/03/22 02:38:21;;;;;;;12.80;9.70;;;;;;;9.33;90.28;100245.11;108722;1258;59647;-68
2023/03/22 02:41:16;;;;;;;14.00;10.40;;;;;;;9.34;90.24;100241.65;108839;1262;60069;-68
2023/03/22 02:44:03;;;;;;;13.60;9.90;;;;;;;9.33;90.33;100236.80;108809;1259;73796;-68
2023/03/22 02:46:47;;;;;;;13.10;9.90;;;;;;;9.32;90.32;100232.38;108866;1260;70990;-68
2023/03/22 02:49:39;;;;;;;14.70;10.40;;;;;;;9.32;90.46;100225.34;108608;1261;71297;-68
2023/03/22 02:52:16;;;;;;;14.60;10.50;;;;;;;9.32;90.58;100225.45;108828;1260;59685;-68
2023/03/22 02:54:51;;;;;;;13.20;10.40;;;;;;;9.31;90.67;100234.80;108814;1258;58389;-68
2023/03/22 02:57:33;;;;;;;14.40;10.80;;;;;;;9.31;90.64;100233.67;108768;1258;75761;-68
2023/03/22 03:00:04;;;;;;;15.00;10.80;;;;;;;9.32;90.67;100230.71;108770;1258;69952;-68
2023/03/22 03:02:31;;;;;;;13.70;11.00;;;;;;;9.31;90.89;100231.46;108668;1258;72504;-68
2023/03/22 03:04:58;;;;;;;15.30;10.80;;;;;;;9.31;90.90;100228.02;108838;1258;61395;-68
2023/03/22 03:07:26;;;;;;;14.60;10.60;;;;;;;9.31;90.98;100231.19;108849;1261;59402;-68
2023/03/22 03:09:53;;;;;;;14.20;10.80;;;;;;;9.31;91.10;100224.58;108766;1258;74738;-68
2023/03/22 03:12:23;;;;;;;14.00;10.50;;;;;;;9.31;90.99;100225.40;108691;1264;71277;-68
2023/03/22 03:14:50;;;;;;;14.60;11.20;;;;;;;9.31;91.03;100226.79;108800;1259;73008;-68
2023/03/22 03:17:42;;;;;;;14.60;10.90;;;;;;;9.30;91.11;100226.59;108705;1259;58894;-68
2023/03/22 03:20:20;;;;;;;14.60;11.10;;;;;;;9.31;91.14;100224.01;108807;1261;59302;-69
2023/03/22 03:23:32;;;;;;;16.00;11.20;;;;;;;9.31;91.08;100219.24;108812;1258;74518;-68
2023/03/22 03:26:10;;;;;;;13.70;10.70;;;;;;;9.32;91.15;100218.20;108635;1259;71261;-68
2023/03/22 03:29:01;;;;;;;14.10;10.90;;;;;;;9.32;91.12;100221.02;108730;1259;71733;-68
2023/03/22 03:31:40;;;;;;;14.30;11.50;;;;;;;9.33;91.12;100219.37;108689;1259;59644;-68
2023/03/22 03:34:17;;;;;;;14.40;11.70;;;;;;;9.33;91.05;100219.33;108797;1261;59198;-68
2023/03/22 03:36:52;;;;;;;16.00;11.60;;;;;;;9.34;90.91;100221.00;108785;1260;74390;-68
2023/03/22 03:39:23;;;;;;;17.10;11.60;;;;;;;9.34;91.09;100219.38;108784;1261;71222;-68
2023/03/22 03:41:52;;;;;;;15.30;11.30;;;;;;;9.34;90.82;100216.48;108749;1260;72084;-68
2023/03/22 03:44:19;;;;;;;15.10;11.30;;;;;;;9.34;90.89;100213.96;108839;1258;59755;-68
2023/03/22 03:46:47;;;;;;;13.60;11.10;;;;;;;9.33;90.89;100211.23;108846;1258;59330;-68
2023/03/22 03:49:15;;;;;;;16.40;11.50;;;;;;;9.33;90.83;100207.19;108742;1258;74389;-68
2023/03/22 03:51:53;;;;;;;15.20;11.10;;;;;;;9.32;90.91;100204.25;108831;1261;70887;-68
2023/03/22 03:54:21;;;;;;;15.90;11.30;;;;;;;9.35;90.74;100198.33;108691;1261;72681;-68
2023/03/22 03:56:48;;;;;;;14.80;10.80;;;;;;;9.35;90.76;100198.16;108774;1259;60984;-68
2023/03/22 03:59:15;;;;;;;14.90;11.10;;;;;;;9.37;90.71;100195.56;108807;1258;59132;-68
2023/03/22 04:01:48;;;;;;;15.80;11.40;;;;;;;9.38;90.68;100192.11;108843;1258;74709;-68
2023/03/22 04:04:17;;;;;;;13.30;10.90;;;;;;;9.38;90.69;100192.44;108753;1258;70740;-68
2023/03/22 04:06:43;;;;;;;15.50;10.80;;;;;;;9.38;90.84;100192.77;108745;1263;72748;-68
2023/03/22 04:09:10;;;;;;;15.20;11.20;;;;;;;9.38;90.62;100192.21;108866;1260;60811;-68
2023/03/22 04:11:37;;;;;;;15.80;11.80;;;;;;;9.40;90.59;100191.90;108851;1260;60326;-68
2023/03/22 04:14:04;;;;;;;15.10;10.90;;;;;;;9.40;90.59;100193.16;108768;1260;75003;-68
2023/03/22 04:16:30;;;;;;;14.30;10.60;;;;;;;9.41;90.29;100188.30;108773;1261;69662;-67
2023/03/22 04:18:57;;;;;;;14.30;11.00;;;;;;;9.40;90.49;100187.11;108861;1259;72738;-68
2023/03/22 04:21:24;;;;;;;14.80;10.70;;;;;;;9.41;90.36;100183.01;108817;1259;60986;-68
2023/03/22 04:23:51;;;;;;;14.90;10.50;;;;;;;9.43;90.34;100183.15;108747;1258;59697;-68
2023/03/22 04:26:17;;;;;;;15.00;10.50;;;;;;;9.43;90.21;100177.79;108829;1258;73239;-68
2023/03/22 04:28:44;;;;;;;14.70;10.60;;;;;;;9.43;90.25;100172.65;108799;1260;69957;-68
2023/03/22 04:31:10;;;;;;;12.70;10.20;;;;;;;9.44;90.26;100169.77;108720;1261;72405;-68
2023/03/22 04:33:39;;;;;;;16.40;10.90;;;;;;;9.42;90.28;100168.55;108805;1259;60389;-68
2023/03/22 04:36:09;;;;;;;17.00;11.30;;;;;;;9.43;90.33;100172.39;108741;1261;60487;-68
2023/03/22 04:38:38;;;;;;;15.70;11.10;;;;;;;9.43;90.15;100172.33;108751;1258;75397;-68
2023/03/22 04:41:05;;;;;;;17.10;11.20;;;;;;;9.43;90.06;100168.27;108730;1259;71069;-68
2023/03/22 04:43:33;;;;;;;15.70;11.40;;;;;;;9.43;90.26;100171.77;108865;1259;72009;-68
2023/03/22 04:46:01;;;;;;;13.50;10.70;;;;;;;9.44;90.06;100171.89;108781;1260;59913;-68
2023/03/22 04:48:28;;;;;;;16.40;11.50;;;;;;;9.43;90.24;100165.59;108701;1259;60937;-68
2023/03/22 04:50:56;;;;;;;15.00;11.40;;;;;;;9.45;90.22;100166.77;108837;1261;73475;-68
2023/03/22 04:53:26;;;;;;;15.20;11.00;;;;;;;9.45;90.07;100163.88;108785;1261;70953;-68
2023/03/22 04:55:55;;;;;;;16.80;10.90;;;;;;;9.45;90.31;100168.77;108732;1258;71497;-68
2023/03/22 04:58:24;;;;;;;16.80;11.40;;;;;;;9.43;90.27;100165.93;108827;1260;59984;-68
2023/03/22 05:00:52;;;;;;;14.70;11.10;;;;;;;9.44;90.21;100172.61;108734;1259;58996;-68
2023/03/22 05:03:19;;;;;;;14.90;11.00;;;;;;;9.44;90.25;100173.30;108772;1258;73239;-68
2023/03/22 05:05:56;;;;;;;13.80;10.40;;;;;;;9.45;90.16;100168.73;108839;1260;69277;-68
2023/03/22 05:08:25;;;;;;;15.60;11.30;;;;;;;9.46;90.29;100170.08;108771;1259;72673;-68
2023/03/22 05:10:56;;;;;;;15.30;11.30;;;;;;;9.46;90.21;100171.21;108715;1260;61968;-68
2023/03/22 05:13:26;;;;;;;16.00;11.50;;;;;;;9.48;90.08;100168.02;108684;1260;60066;-68
2023/03/22 05:15:53;;;;;;;17.30;11.70;;;;;;;9.49;90.10;100169.10;108757;1263;73683;-68
2023/03/22 05:18:25;;;;;;;15.10;11.30;;;;;;;9.52;90.00;100170.02;108821;1261;71472;-68
2023/03/22 05:20:54;;;;;;;16.50;11.30;;;;;;;9.51;89.96;100175.48;108691;1259;71399;-68
2023/03/22 05:23:22;;;;;;;16.10;11.20;;;;;;;9.52;89.86;100163.45;108793;1259;59664;-72
2023/03/22 05:25:50;;;;;;;16.30;12.10;;;;;;;9.54;89.88;100161.15;108691;1258;60057;-70
2023/03/22 05:28:20;;;;;;;14.60;11.00;;;;;;;9.56;89.63;100159.83;108682;1258;73656;-70
2023/03/22 05:30:48;;;;;;;16.30;11.60;;;;;;;9.57;89.40;100163.41;108661;1259;71393;-70
2023/03/22 05:33:20;;;;;;;17.00;11.70;;;;;;;9.59;89.46;100165.96;108716;1260;70546;-70
2023/03/22 05:35:49;;;;;;;15.80;11.40;;;;;;;9.61;89.34;100170.39;108736;1260;60569;-70
2023/03/22 05:38:16;;;;;;;16.20;11.70;;;;;;;9.63;89.13;100165.33;108682;1258;59063;-70
2023/03/22 05:40:43;;;;;;;16.70;11.40;;;;;;;9.65;89.04;100156.34;108788;1260;73391;-70
2023/03/22 05:43:10;;;;;;;15.50;11.10;;;;;;;9.68;88.86;100156.66;108755;1260;70043;-70
2023/03/22 05:45:37;;;;;;;17.10;11.10;;;;;;;9.68;88.77;100165.18;108724;1260;71538;-70
2023/03/22 05:48:04;;;;;;;17.50;11.90;;;;;;;9.69;88.62;100163.09;108773;1259;61813;-71
2023/03/22 05:50:31;;;;;;;15.70;11.60;;;;;;;9.71;88.69;100156.08;108830;1259;59025;-71
2023/03/22 05:52:58;;;;;;;15.20;11.10;;;;;;;9.73;88.52;100157.68;108822;1261;72473;-71
2023/03/22 05:55:25;;;;;;;14.50;11.40;;;;;;;9.75;88.42;100151.00;108725;1261;71559;-71
2023/03/22 05:57:53;;;;;;;16.30;11.10;;;;;;;9.76;88.27;100152.55;108693;1259;72789;-71
2023/03/22 06:00:22;;;;;;;15.50;11.50;;;;;;;9.76;88.07;100150.39;108849;1259;60932;-71
2023/03/22 06:02:53;;;;;;;16.50;11.20;;;;;;;9.79;88.18;100145.38;108777;1259;58991;-71
2023/03/22 06:05:22;;;;;;;14.50;10.80;;;;;;;9.80;88.06;100143.55;108778;1260;73827;-71
2023/03/22 06:07:49;;;;;;;13.70;10.80;;;;;;;9.79;88.04;100141.67;108801;1260;70702;-71
2023/03/22 06:10:16;;;;;;;15.60;10.70;;;;;;;9.83;88.01;100134.77;108857;1260;72393;-71
2023/03/22 06:12:43;;;;;;;15.40;10.70;;;;;;;9.85;87.91;100129.80;108670;1260;61721;-71
2023/03/22 06:15:10;;;;;;;14.60;10.70;;;;;;;9.86;87.80;100127.56;108835;1260;59547;-71
2023/03/22 06:17:37;;;;;;;13.60;10.20;;;;;;;9.88;87.81;100122.34;108705;1259;74664;-72
2023/03/22 06:20:13;;;;;;;14.20;10.70;;;;;;;9.89;87.77;100123.16;108815;1261;70521;-72
2023/03/22 06:22:40;;;;;;;14.60;11.00;;;;;;;9.91;87.59;100124.09;108688;1260;72899;-72
2023/03/22 06:25:08;;;;;;;16.10;11.30;;;;;;;9.92;87.30;100126.09;108691;1260;61749;-72
2023/03/22 06:27:35;;;;;;;14.80;10.70;;;;;;;9.93;87.19;100130.32;108760;1259;60390;-73
2023/03/22 06:30:01;;;;;;;14.50;10.80;;;;;;;9.97;87.10;100131.17;108838;1260;75714;-73
2023/03/22 06:32:28;;;;;;;14.50;10.80;;;;;;;10.03;86.78;100129.05;108831;1260;72425;-71
2023/03/22 06:34:55;;;;;;;15.10;10.60;;;;;;;10.07;86.75;100126.58;108870;1260;71685;-71
2023/03/22 06:37:24;;;;;;;14.40;10.80;;;;;;;10.11;86.60;100127.60;108650;1261;60457;-71
2023/03/22 06:39:51;;;;;;;12.80;9.30;;;;;;;10.16;86.35;100124.39;108703;1259;59349;-71
2023/03/22 06:42:18;;;;;;;14.90;11.20;;;;;;;10.23;86.20;100121.01;108860;1259;74800;-71
2023/03/22 06:44:45;;;;;;;13.60;10.40;;;;;;;10.29;85.95;100123.16;108855;1260;71106;-71
2023/03/22 06:47:11;;;;;;;15.60;10.30;;;;;;;10.37;85.75;100126.86;108803;1261;71140;-71
2023/03/22 06:49:38;;;;;;;14.60;10.30;;;;;;;10.44;85.40;100132.70;108740;1260;61766;-71
2023/03/22 06:52:05;;;;;;;15.10;10.20;;;;;;;10.52;85.03;100134.92;108907;1257;59109;-71
2023/03/22 06:54:32;;;;;;;11.10;8.60;;;;;;;10.61;84.55;100136.84;108815;1260;73501;-71
2023/03/22 06:56:59;;;;;;;16.20;10.40;;;;;;;10.66;83.98;100137.28;108864;1259;68842;-72
2023/03/22 06:59:26;;;;;;;14.50;9.80;;;;;;;10.73;83.91;100133.10;108812;1259;71868;-71
2023/03/22 07:01:53;;;;;;;14.40;9.30;;;;;;;10.80;83.70;100131.17;108676;1260;61640;-72
2023/03/22 07:04:20;;;;;;;14.20;10.20;;;;;;;10.85;83.20;100127.29;108790;1259;59375;-73
2023/03/22 07:06:47;;;;;;;14.80;9.80;;;;;;;10.94;83.25;100124.60;108760;1261;73438;-72
2023/03/22 07:09:14;;;;;;;14.10;9.20;;;;;;;10.98;83.09;100125.12;108789;1257;69742;-73
2023/03/22 07:11:40;;;;;;;14.30;9.80;;;;;;;10.99;82.65;100126.15;108768;1259;71448;-72
2023/03/22 07:14:08;;;;;;;12.70;9.70;;;;;;;10.98;82.64;100124.63;108845;1260;62159;-73
2023/03/22 07:16:35;;;;;;;13.00;9.90;;;;;;;10.99;82.67;100129.46;108773;1258;60265;-72
2023/03/22 07:19:02;;;;;;;12.00;9.70;;;;;;;10.98;82.81;100123.90;108881;1260;73303;-72
2023/03/22 07:21:28;;;;;;;13.80;9.70;;;;;;;10.97;82.76;100120.09;108716;1259;69375;-72
2023/03/22 07:23:55;;;;;;;15.30;10.40;;;;;;;10.97;82.65;100121.56;108837;1259;72438;-72
2023/03/22 07:26:22;;;;;;;14.70;10.00;;;;;;;10.95;82.44;100125.20;108733;1259;61715;-72
2023/03/22 07:28:49;;;;;;;14.50;10.00;;;;;;;10.96;82.54;100128.98;108754;1259;59114;-73
2023/03/22 07:31:16;;;;;;;12.10;9.40;;;;;;;10.99;82.55;100125.36;108824;1260;73148;-72
2023/03/22 07:33:43;;;;;;;12.70;9.80;;;;;;;11.05;82.38;100123.82;108837;1259;69729;-73
2023/03/22 07:36:10;;;;;;;13.10;10.20;;;;;;;11.11;82.25;100127.30;108909;1259;71433;-72
2023/03/22 07:38:37;;;;;;;12.50;9.50;;;;;;;11.20;81.97;100129.98;108691;1260;62172;-73
2023/03/22 07:41:04;;;;;;;13.50;9.20;;;;;;;11.28;81.64;100130.09;108808;1258;59121;-73
2023/03/22 07:43:31;;;;;;;12.80;9.50;;;;;;;11.38;81.28;100128.47;108880;1257;73650;-73
2023/03/22 07:46:09;;;;;;;11.50;9.10;;;;;;;11.47;80.67;100125.27;108832;1258;71383;-73
2023/03/22 07:48:37;;;;;;;12.70;9.60;;;;;;;11.55;80.56;100124.38;108830;1257;70567;-72
2023/03/22 07:51:04;;;;;;;12.00;9.20;;;;;;;11.59;80.35;100123.67;108834;1258;63007;-73
2023/03/22 07:53:31;;;;;;;12.00;8.80;;;;;;;11.62;80.27;100116.09;108788;1260;60073;-73
2023/03/22 07:55:58;;;;;;;12.50;9.00;;;;;;;11.65;79.98;100119.01;108855;1258;74737;-73
2023/03/22 07:58:25;;;;;;;11.70;8.90;;;;;;;11.72;79.73;100116.92;108872;1258;72340;-73
2023/03/22 08:00:52;;;;;;;11.30;8.30;;;;;;;11.82;79.30;100117.41;108818;1257;71161;-72
2023/03/22 08:03:18;;;;;;;11.60;8.80;;;;;;;11.98;79.08;100115.22;108777;1258;62797;-73
2023/03/22 08:05:46;;;;;;;11.00;8.50;;;;;;;12.14;78.84;100106.73;108862;1258;59590;-73
2023/03/22 08:08:13;;;;;;;13.10;9.00;;;;;;;12.31;78.17;100107.48;108914;1259;74210;-73
2023/03/22 08:10:39;;;;;;;9.90;7.50;;;;;;;12.53;77.46;100114.58;108762;1260;69444;-73
2023/03/22 08:13:07;;;;;;;11.80;8.40;;;;;;;12.70;76.39;100110.79;108804;1259;70622;-73
2023/03/22 08:15:36;;;;;;;11.60;8.00;;;;;;;12.88;75.90;100107.29;108870;1258;61826;-73
2023/03/22 08:18:03;;;;;;;12.00;7.60;;;;;;;13.02;75.17;100104.73;108813;1258;59036;-73
2023/03/22 08:20:29;;;;;;;12.40;7.70;;;;;;;13.11;75.09;100101.99;108766;1258;73275;-73
2023/03/22 08:22:56;;;;;;;9.70;7.30;;;;;;;13.16;74.36;100103.67;108776;1259;70029;-73
2023/03/22 08:25:23;;;;;;;12.00;7.50;;;;;;;13.24;74.92;100103.06;108872;1258;73050;-73
2023/03/22 08:27:49;;;;;;;11.40;7.60;;;;;;;13.29;74.21;100101.64;108774;1258;60517;-72
2023/03/22 08:30:17;;;;;;;10.50;7.40;;;;;;;13.30;73.48;100097.48;108819;1258;60158;-73
2023/03/22 08:32:44;;;;;;;11.20;6.60;;;;;;;13.28;73.20;100094.89;108820;1259;74708;-72
2023/03/22 08:35:14;;;;;;;13.40;7.00;;;;;;;13.25;73.18;100089.52;108896;1258;70494;-74
2023/03/22 08:37:41;;;;;;;10.20;6.80;;;;;;;13.26;73.37;100089.23;108798;1258;71314;-72
2023/03/22 08:40:09;;;;;;;10.20;6.70;;;;;;;13.25;73.12;100085.10;108784;1259;61027;-73
2023/03/22 08:42:36;;;;;;;10.80;6.60;;;;;;;13.24;72.88;100087.52;108872;1260;59379;-73
2023/03/22 08:45:03;;;;;;;12.30;7.20;;;;;;;13.26;72.88;100079.89;108844;1258;74579;-72
2023/03/22 08:47:30;;;;;;;10.50;7.40;;;;;;;13.30;73.26;100071.14;108874;1258;69739;-72
2023/03/22 08:49:57;;;;;;;11.60;6.60;;;;;;;13.33;72.78;100066.30;108863;1258;70887;-73
2023/03/22 08:52:24;;;;;;;9.10;6.00;;;;;;;13.33;72.56;100065.73;108753;1259;60922;-73
2023/03/22 08:54:52;;;;;;;10.10;6.50;;;;;;;13.32;72.10;100057.29;108808;1259;58958;-73
2023/03/22 08:57:20;;;;;;;9.90;6.40;;;;;;;13.35;72.13;100057.70;108799;1260;73519;-73
2023/03/22 08:59:47;;;;;;;11.20;6.30;;;;;;;13.36;72.07;100051.26;108642;1258;69925;-73
2023/03/22 09:02:14;;;;;;;9.60;6.30;;;;;;;13.37;72.30;100046.83;108909;1258;70147;-73
2023/03/22 09:04:41;;;;;;;9.40;6.40;;;;;;;13.37;72.08;100053.77;108795;1259;60825;-73
2023/03/22 09:07:08;;;;;;;11.30;6.50;;;;;;;13.37;71.69;100053.09;108742;1260;59144;-72
2023/03/22 09:09:35;;;;;;;8.30;5.90;;;;;;;13.39;71.20;100052.32;108853;1258;75306;-73
2023/03/22 09:12:02;;;;;;;9.90;5.80;;;;;;;13.45;70.91;100057.59;108791;1260;70635;-73
2023/03/22 09:14:29;;;;;;;9.20;5.80;;;;;;;13.53;70.56;100054.63;108832;1259;71570;-72
2023/03/22 09:16:56;;;;;;;9.40;5.50;;;;;;;13.60;70.07;100053.97;108742;1258;60467;-73
2023/03/22 09:19:22;;;;;;;8.80;5.30;;;;;;;13.70;69.76;100050.08;108795;1258;60167;-72
2023/03/22 09:21:49;;;;;;;8.60;5.30;;;;;;;13.78;69.35;100046.48;108741;1258;73652;-73
2023/03/22 09:24:16;;;;;;;9.40;5.30;;;;;;;13.92;68.90;100035.72;108780;1259;72197;-72
2023/03/22 09:26:43;;;;;;;8.30;4.80;;;;;;;14.00;68.20;100033.89;108874;1258;74011;-73
2023/03/22 09:29:10;;;;;;;9.80;5.10;;;;;;;14.09;68.57;100027.05;108634;1259;60977;-73
2023/03/22 09:31:37;;;;;;;10.60;5.40;;;;;;;14.22;68.17;100028.33;108755;1260;59392;-72
2023/03/22 09:34:04;;;;;;;7.30;4.70;;;;;;;14.25;67.00;100028.78;108890;1258;73855;-73
2023/03/22 09:36:33;;;;;;;8.00;4.90;;;;;;;14.17;66.49;100028.47;108717;1260;70653;-73
2023/03/22 09:39:05;;;;;;;9.30;4.70;;;;;;;14.16;66.69;100016.65;108861;1257;73695;-73
2023/03/22 09:41:40;;;;;;;7.70;4.80;;;;;;;14.13;66.82;100016.42;108794;1258;61710;-73
2023/03/22 09:44:12;;;;;;;6.50;4.80;;;;;;;14.17;66.57;100011.44;108862;1260;60757;-73
2023/03/22 09:46:47;;;;;;;8.50;4.80;;;;;;;14.24;66.19;100007.69;108882;1258;76195;-73
2023/03/22 09:49:21;;;;;;;8.10;4.60;;;;;;;14.38;66.57;100004.52;108803;1259;70531;-73
2023/03/22 09:51:50;;;;;;;7.40;4.60;;;;;;;14.42;65.80;100009.13;108774;1260;72677;-72
2023/03/22 09:54:27;;;;;;;6.80;4.20;;;;;;;14.43;64.78;100010.60;108877;1258;60856;-72
2023/03/22 09:57:27;;;;;;;7.80;4.80;;;;;;;14.49;65.17;100003.65;108782;1260;61520;-73
2023/03/22 10:00:11;;;;;;;8.00;4.60;;;;;;;14.64;64.59;99999.46;108866;1258;75208;-73
2023/03/22 10:02:51;;;;;;;6.40;3.80;;;;;;;14.75;64.38;99999.52;108782;1258;71161;-73
2023/03/22 10:05:43;;;;;;;7.20;3.70;;;;;;;14.74;63.45;100001.35;108758;1258;71184;-74
2023/03/22 10:08:34;;;;;;;7.50;3.60;;;;;;;14.81;63.73;99992.04;108863;1258;61753;-73
2023/03/22 10:11:06;;;;;;;7.00;3.90;;;;;;;14.86;63.73;99991.98;108833;1259;59757;-73
2023/03/22 10:13:44;;;;;;;6.30;3.70;;;;;;;14.81;63.56;99980.45;108848;1258;72920;-73
2023/03/22 10:16:15;;;;;;;9.30;3.60;;;;;;;14.80;64.07;99983.05;108876;1260;71984;-75
2023/03/22 10:18:49;;;;;;;8.80;3.50;;;;;;;14.82;63.86;99976.13;108790;1259;73156;-72
2023/03/22 10:21:18;;;;;;;5.50;3.40;;;;;;;14.87;64.08;99971.61;108707;1260;60463;-73
2023/03/22 10:23:50;;;;;;;7.40;3.90;;;;;;;14.94;63.38;99974.16;108728;1258;61062;-73
2023/03/22 10:26:23;;;;;;;6.70;3.30;;;;;;;14.94;62.64;99972.06;108877;1258;73930;-73
2023/03/22 10:29:02;;;;;;;5.70;3.40;;;;;;;14.91;62.38;99967.38;108745;1258;71191;-73
2023/03/22 10:31:31;;;;;;;6.00;3.00;;;;;;;15.10;62.70;99959.19;108794;1259;72783;-73
2023/03/22 10:34:15;;;;;;;6.40;3.30;;;;;;;15.23;62.04;99960.04;108747;1259;59892;-73
2023/03/22 10:36:43;;;;;;;6.30;3.20;;;;;;;15.34;61.60;99963.08;108719;1258;59221;-73
2023/03/22 10:39:26;;;;;;;6.10;3.10;;;;;;;15.45;60.55;99967.67;108846;1259;73572;-73
2023/03/22 10:41:55;;;;;;;7.10;3.40;;;;;;;15.50;60.67;99963.61;108807;1258;70442;-73
2023/03/22 10:44:26;;;;;;;5.80;3.20;;;;;;;15.51;60.68;99968.83;108794;1258;72799;-73
2023/03/22 10:46:55;;;;;;;5.40;3.20;;;;;;;15.54;60.51;99966.62;108785;1258;59290;-73
2023/03/22 10:49:28;;;;;;;6.40;3.40;;;;;;;15.58;60.01;99965.78;108877;1259;59031;-75
2023/03/22 10:52:01;;;;;;;6.40;3.10;;;;;;;15.56;60.01;99965.02;108719;1258;72766;-73
2023/03/22 10:54:28;;;;;;;6.30;3.20;;;;;;;15.60;59.25;99969.04;108766;1258;71566;-73
2023/03/22 10:56:55;;;;;;;7.20;3.00;;;;;;;15.60;58.22;99979.23;108769;1258;70975;-73
2023/03/22 10:59:50;;;;;;;5.20;2.60;;;;;;;15.58;58.39;99977.22;108779;1258;59151;-73
2023/03/22 11:02:31;;;;;;;5.50;2.80;;;;;;;15.65;58.35;99974.83;108893;1258;58943;-73
2023/03/22 11:05:03;;;;;;;5.80;2.90;;;;;;;15.75;58.60;99975.71;108869;1258;73468;-73
2023/03/22 11:07:34;;;;;;;5.30;2.70;;;;;;;15.75;58.04;99983.95;108803;1260;72359;-73
2023/03/22 11:10:07;;;;;;;6.60;2.60;;;;;;;15.64;57.06;99972.04;108847;1260;71367;-73
2023/03/22 11:12:41;;;;;;;4.20;2.30;;;;;;;15.63;58.12;99966.16;108838;1260;60256;-74
2023/03/22 11:15:22;;;;;;;6.00;2.50;;;;;;;15.72;58.37;99963.76;108753;1260;59519;-73
2023/03/22 11:17:50;;;;;;;3.90;2.20;;;;;;;15.79;57.24;99955.12;108879;1260;73171;-73
2023/03/22 11:20:19;;;;;;;5.20;2.30;;;;;;;15.78;56.69;99953.44;108809;1259;71539;-74
2023/03/22 11:22:48;;;;;;;5.20;2.20;;;;;;;15.88;57.10;99958.56;108763;1260;72463;-74
2023/03/22 11:25:20;;;;;;;6.70;3.10;;;;;;;15.91;57.13;99946.92;108754;1258;60418;-75
2023/03/22 11:27:53;;;;;;;4.50;2.60;;;;;;;15.95;57.20;99956.66;108816;1258;58975;-74
2023/03/22 11:30:28;;;;;;;3.70;2.00;;;;;;;15.91;56.11;99961.60;108768;1258;73266;-75